sensor_id;sensor_type;location;lat;lon;timestamp;P1;durP1;ratioP1;P2;durP2;ratioP2
45011;SDS011;63444;48.148;11.542;2023-02-26T00:00:11;2.87;;;2.10;;
45011;SDS011;63444;48.148;11.542;2023-02-26T00:02:39;2.20;;;2.00;;
45011;SDS011;63444;48.148;11.542;2023-02-26T00:05:06;2.33;;;2.13;;
45011;SDS011;63444;48.148;11.542;2023-02-26T00:07:33;2.10;;;2.00;;
45011;SDS011;63444;48.148;11.542;2023-02-26T00:09:59;2.40;;;2.20;;
45011;SDS011;63444;48.148;11.542;2023-02-26T00:12:28;2.47;;;2.27;;
45011;SDS011;63444;48.148;11.542;2023-02-26T00:14:54;2.90;;;2.57;;
45011;SDS011;63444;48.148;11.542;2023-02-26T00:20:33;2.70;;;2.50;;
45011;SDS011;63444;48.148;11.542;2023-02-26T00:23:00;2.83;;;2.40;;
45011;SDS011;63444;48.148;11.542;2023-02-26T00:25:26;2.47;;;2.27;;
45011;SDS011;63444;48.148;11.542;2023-02-26T00:27:52;2.50;;;2.30;;
45011;SDS011;63444;48.148;11.542;2023-02-26T00:30:18;2.40;;;2.13;;
45011;SDS011;63444;48.148;11.542;2023-02-26T00:32:44;2.93;;;2.70;;
45011;SDS011;63444;48.148;11.542;2023-02-26T00:35:11;2.90;;;2.60;;
45011;SDS011;63444;48.148;11.542;2023-02-26T00:40:35;2.50;;;2.30;;
45011;SDS011;63444;48.148;11.542;2023-02-26T00:43:09;2.60;;;2.40;;
45011;SDS011;63444;48.148;11.542;2023-02-26T00:45:40;2.50;;;2.30;;
45011;SDS011;63444;48.148;11.542;2023-02-26T00:48:29;2.60;;;2.40;;
45011;SDS011;63444;48.148;11.542;2023-02-26T00:53:58;2.63;;;2.43;;
45011;SDS011;63444;48.148;11.542;2023-02-26T00:56:31;2.33;;;2.13;;
45011;SDS011;63444;48.148;11.542;2023-02-26T00:58:57;2.33;;;2.20;;
45011;SDS011;63444;48.148;11.542;2023-02-26T01:01:22;2.30;;;2.10;;
45011;SDS011;63444;48.148;11.542;2023-02-26T01:03:48;1.97;;;1.87;;
45011;SDS011;63444;48.148;11.542;2023-02-26T01:06:14;1.73;;;1.63;;
45011;SDS011;63444;48.148;11.542;2023-02-26T01:08:51;1.80;;;1.70;;
45011;SDS011;63444;48.148;11.542;2023-02-26T01:11:34;1.97;;;1.87;;
45011;SDS011;63444;48.148;11.542;2023-02-26T01:14:00;1.70;;;1.60;;
45011;SDS011;63444;48.148;11.542;2023-02-26T01:16:27;2.87;;;1.80;;
45011;SDS011;63444;48.148;11.542;2023-02-26T01:19:01;1.70;;;1.60;;
45011;SDS011;63444;48.148;11.542;2023-02-26T01:21:38;2.27;;;2.00;;
45011;SDS011;63444;48.148;11.542;2023-02-26T01:24:07;1.90;;;1.70;;
45011;SDS011;63444;48.148;11.542;2023-02-26T01:26:37;1.90;;;1.80;;
45011;SDS011;63444;48.148;11.542;2023-02-26T01:29:03;1.93;;;1.73;;
45011;SDS011;63444;48.148;11.542;2023-02-26T01:33:59;2.10;;;1.90;;
45011;SDS011;63444;48.148;11.542;2023-02-26T01:36:33;1.97;;;1.80;;
45011;SDS011;63444;48.148;11.542;2023-02-26T01:41:55;1.90;;;1.80;;
45011;SDS011;63444;48.148;11.542;2023-02-26T01:44:34;3.30;;;1.80;;
45011;SDS011;63444;48.148;11.542;2023-02-26T01:47:15;3.47;;;1.80;;
45011;SDS011;63444;48.148;11.542;2023-02-26T01:49:48;1.83;;;1.70;;
45011;SDS011;63444;48.148;11.542;2023-02-26T01:55:20;1.80;;;1.70;;
45011;SDS011;63444;48.148;11.542;2023-02-26T01:57:49;2.00;;;1.90;;
45011;SDS011;63444;48.148;11.542;2023-02-26T02:00:17;2.10;;;1.90;;
45011;SDS011;63444;48.148;11.542;2023-02-26T02:02:43;2.87;;;2.07;;
45011;SDS011;63444;48.148;11.542;2023-02-26T02:08:27;2.80;;;1.80;;
45011;SDS011;63444;48.148;11.542;2023-02-26T02:10:54;2.83;;;1.73;;
45011;SDS011;63444;48.148;11.542;2023-02-26T02:16:15;2.03;;;1.83;;
45011;SDS011;63444;48.148;11.542;2023-02-26T02:18:51;2.30;;;1.87;;
45011;SDS011;63444;48.148;11.542;2023-02-26T02:21:27;1.93;;;1.67;;
45011;SDS011;63444;48.148;11.542;2023-02-26T02:24:00;1.90;;;1.80;;
45011;SDS011;63444;48.148;11.542;2023-02-26T02:26:41;1.90;;;1.80;;
45011;SDS011;63444;48.148;11.542;2023-02-26T02:29:24;2.03;;;1.83;;
45011;SDS011;63444;48.148;11.542;2023-02-26T02:37:39;1.90;;;1.60;;
45011;SDS011;63444;48.148;11.542;2023-02-26T02:40:35;2.17;;;1.90;;
45011;SDS011;63444;48.148;11.542;2023-02-26T02:46:07;2.40;;;1.97;;
45011;SDS011;63444;48.148;11.542;2023-02-26T02:48:38;1.90;;;1.80;;
45011;SDS011;63444;48.148;11.542;2023-02-26T02:51:20;3.40;;;2.30;;
45011;SDS011;63444;48.148;11.542;2023-02-26T02:53:49;2.07;;;1.90;;
45011;SDS011;63444;48.148;11.542;2023-02-26T02:56:36;2.80;;;2.00;;
45011;SDS011;63444;48.148;11.542;2023-02-26T03:01:38;2.13;;;1.83;;
45011;SDS011;63444;48.148;11.542;2023-02-26T03:04:06;2.27;;;2.00;;
45011;SDS011;63444;48.148;11.542;2023-02-26T03:06:35;2.33;;;2.00;;
45011;SDS011;63444;48.148;11.542;2023-02-26T03:09:02;2.03;;;1.83;;
45011;SDS011;63444;48.148;11.542;2023-02-26T03:11:29;1.83;;;1.70;;
45011;SDS011;63444;48.148;11.542;2023-02-26T03:13:55;2.87;;;1.80;;
45011;SDS011;63444;48.148;11.542;2023-02-26T03:19:26;3.77;;;1.80;;
45011;SDS011;63444;48.148;11.542;2023-02-26T03:22:14;2.50;;;1.57;;
45011;SDS011;63444;48.148;11.542;2023-02-26T03:24:49;2.27;;;1.60;;
45011;SDS011;63444;48.148;11.542;2023-02-26T03:27:30;3.17;;;1.60;;
45011;SDS011;63444;48.148;11.542;2023-02-26T03:30:05;2.53;;;1.63;;
45011;SDS011;63444;48.148;11.542;2023-02-26T03:32:46;2.43;;;1.70;;
45011;SDS011;63444;48.148;11.542;2023-02-26T03:38:02;2.20;;;1.70;;
45011;SDS011;63444;48.148;11.542;2023-02-26T03:40:36;4.03;;;2.10;;
45011;SDS011;63444;48.148;11.542;2023-02-26T03:43:18;1.70;;;1.60;;
45011;SDS011;63444;48.148;11.542;2023-02-26T03:46:08;3.83;;;1.90;;
45011;SDS011;63444;48.148;11.542;2023-02-26T03:48:39;1.90;;;1.70;;
45011;SDS011;63444;48.148;11.542;2023-02-26T03:51:07;5.07;;;2.10;;
45011;SDS011;63444;48.148;11.542;2023-02-26T03:53:53;2.63;;;1.80;;
45011;SDS011;63444;48.148;11.542;2023-02-26T03:56:46;2.93;;;1.83;;
45011;SDS011;63444;48.148;11.542;2023-02-26T03:59:13;2.30;;;2.10;;
45011;SDS011;63444;48.148;11.542;2023-02-26T04:01:42;3.23;;;1.90;;
45011;SDS011;63444;48.148;11.542;2023-02-26T04:06:48;2.80;;;1.93;;
45011;SDS011;63444;48.148;11.542;2023-02-26T04:09:17;3.30;;;2.13;;
45011;SDS011;63444;48.148;11.542;2023-02-26T04:11:43;3.03;;;2.00;;
45011;SDS011;63444;48.148;11.542;2023-02-26T04:14:10;3.37;;;1.90;;
45011;SDS011;63444;48.148;11.542;2023-02-26T04:16:35;4.20;;;1.97;;
45011;SDS011;63444;48.148;11.542;2023-02-26T04:19:01;2.03;;;1.80;;
45011;SDS011;63444;48.148;11.542;2023-02-26T04:21:26;4.37;;;1.83;;
45011;SDS011;63444;48.148;11.542;2023-02-26T04:23:52;2.93;;;2.03;;
45011;SDS011;63444;48.148;11.542;2023-02-26T04:26:19;2.67;;;1.80;;
45011;SDS011;63444;48.148;11.542;2023-02-26T04:28:45;6.07;;;2.43;;
45011;SDS011;63444;48.148;11.542;2023-02-26T04:31:11;2.07;;;1.87;;
45011;SDS011;63444;48.148;11.542;2023-02-26T04:33:36;2.87;;;1.93;;
45011;SDS011;63444;48.148;11.542;2023-02-26T04:36:02;2.53;;;1.63;;
45011;SDS011;63444;48.148;11.542;2023-02-26T04:38:28;5.77;;;2.30;;
45011;SDS011;63444;48.148;11.542;2023-02-26T04:40:54;2.57;;;1.60;;
45011;SDS011;63444;48.148;11.542;2023-02-26T04:43:20;4.60;;;1.70;;
45011;SDS011;63444;48.148;11.542;2023-02-26T04:45:46;2.73;;;1.70;;
45011;SDS011;63444;48.148;11.542;2023-02-26T04:48:15;2.57;;;2.10;;
45011;SDS011;63444;48.148;11.542;2023-02-26T04:50:42;2.00;;;1.70;;
45011;SDS011;63444;48.148;11.542;2023-02-26T04:53:08;3.90;;;2.30;;
45011;SDS011;63444;48.148;11.542;2023-02-26T04:55:34;2.93;;;2.00;;
45011;SDS011;63444;48.148;11.542;2023-02-26T04:58:00;3.20;;;2.10;;
45011;SDS011;63444;48.148;11.542;2023-02-26T05:00:26;2.23;;;1.77;;
45011;SDS011;63444;48.148;11.542;2023-02-26T05:02:52;3.77;;;2.00;;
45011;SDS011;63444;48.148;11.542;2023-02-26T05:05:17;3.23;;;1.70;;
45011;SDS011;63444;48.148;11.542;2023-02-26T05:07:43;3.67;;;2.17;;
45011;SDS011;63444;48.148;11.542;2023-02-26T05:10:09;3.13;;;1.90;;
45011;SDS011;63444;48.148;11.542;2023-02-26T05:12:35;2.40;;;1.83;;
45011;SDS011;63444;48.148;11.542;2023-02-26T05:15:01;4.77;;;2.03;;
45011;SDS011;63444;48.148;11.542;2023-02-26T05:17:26;4.47;;;1.87;;
45011;SDS011;63444;48.148;11.542;2023-02-26T05:19:52;3.67;;;2.10;;
45011;SDS011;63444;48.148;11.542;2023-02-26T05:22:18;2.73;;;1.80;;
45011;SDS011;63444;48.148;11.542;2023-02-26T05:24:44;3.17;;;1.93;;
45011;SDS011;63444;48.148;11.542;2023-02-26T05:27:10;3.57;;;1.97;;
45011;SDS011;63444;48.148;11.542;2023-02-26T05:29:35;2.80;;;1.80;;
45011;SDS011;63444;48.148;11.542;2023-02-26T05:32:02;3.80;;;1.87;;
45011;SDS011;63444;48.148;11.542;2023-02-26T05:34:27;2.07;;;1.83;;
45011;SDS011;63444;48.148;11.542;2023-02-26T05:36:53;3.50;;;2.10;;
45011;SDS011;63444;48.148;11.542;2023-02-26T05:39:19;3.83;;;2.00;;
45011;SDS011;63444;48.148;11.542;2023-02-26T05:41:47;2.63;;;1.80;;
45011;SDS011;63444;48.148;11.542;2023-02-26T05:44:13;3.27;;;1.83;;
45011;SDS011;63444;48.148;11.542;2023-02-26T05:46:38;4.67;;;2.10;;
45011;SDS011;63444;48.148;11.542;2023-02-26T05:49:04;5.40;;;1.97;;
45011;SDS011;63444;48.148;11.542;2023-02-26T05:51:29;2.03;;;1.77;;
45011;SDS011;63444;48.148;11.542;2023-02-26T05:53:55;3.10;;;1.87;;
45011;SDS011;63444;48.148;11.542;2023-02-26T05:56:21;3.53;;;2.07;;
45011;SDS011;63444;48.148;11.542;2023-02-26T05:58:46;4.20;;;1.93;;
45011;SDS011;63444;48.148;11.542;2023-02-26T06:01:12;4.90;;;2.00;;
45011;SDS011;63444;48.148;11.542;2023-02-26T06:03:38;2.33;;;1.80;;
45011;SDS011;63444;48.148;11.542;2023-02-26T06:06:08;3.43;;;1.83;;
45011;SDS011;63444;48.148;11.542;2023-02-26T06:08:38;5.37;;;2.30;;
45011;SDS011;63444;48.148;11.542;2023-02-26T06:11:04;2.97;;;1.80;;
45011;SDS011;63444;48.148;11.542;2023-02-26T06:13:29;5.00;;;2.20;;
45011;SDS011;63444;48.148;11.542;2023-02-26T06:15:55;5.20;;;2.30;;
45011;SDS011;63444;48.148;11.542;2023-02-26T06:18:21;2.13;;;1.93;;
45011;SDS011;63444;48.148;11.542;2023-02-26T06:20:47;3.77;;;2.07;;
45011;SDS011;63444;48.148;11.542;2023-02-26T06:23:12;2.93;;;2.03;;
45011;SDS011;63444;48.148;11.542;2023-02-26T06:25:39;4.93;;;1.87;;
45011;SDS011;63444;48.148;11.542;2023-02-26T06:28:05;3.73;;;2.37;;
45011;SDS011;63444;48.148;11.542;2023-02-26T06:30:31;3.80;;;1.90;;
45011;SDS011;63444;48.148;11.542;2023-02-26T06:32:56;3.30;;;2.10;;
45011;SDS011;63444;48.148;11.542;2023-02-26T06:35:22;2.63;;;1.93;;
45011;SDS011;63444;48.148;11.542;2023-02-26T06:37:48;3.03;;;2.10;;
45011;SDS011;63444;48.148;11.542;2023-02-26T06:40:14;2.20;;;1.90;;
45011;SDS011;63444;48.148;11.542;2023-02-26T06:42:39;4.30;;;2.20;;
45011;SDS011;63444;48.148;11.542;2023-02-26T06:45:05;5.20;;;2.17;;
45011;SDS011;63444;48.148;11.542;2023-02-26T06:47:32;5.47;;;2.20;;
45011;SDS011;63444;48.148;11.542;2023-02-26T06:49:58;7.07;;;2.40;;
45011;SDS011;63444;48.148;11.542;2023-02-26T06:52:24;3.87;;;2.17;;
45011;SDS011;63444;48.148;11.542;2023-02-26T06:54:49;3.43;;;2.00;;
45011;SDS011;63444;48.148;11.542;2023-02-26T06:57:15;3.17;;;2.23;;
45011;SDS011;63444;48.148;11.542;2023-02-26T06:59:41;2.67;;;1.80;;
45011;SDS011;63444;48.148;11.542;2023-02-26T07:02:13;4.47;;;2.00;;
45011;SDS011;63444;48.148;11.542;2023-02-26T07:04:41;2.77;;;2.20;;
45011;SDS011;63444;48.148;11.542;2023-02-26T07:07:06;3.43;;;2.20;;
45011;SDS011;63444;48.148;11.542;2023-02-26T07:09:32;5.50;;;2.17;;
45011;SDS011;63444;48.148;11.542;2023-02-26T07:11:58;3.93;;;2.20;;
45011;SDS011;63444;48.148;11.542;2023-02-26T07:14:23;3.07;;;1.93;;
45011;SDS011;63444;48.148;11.542;2023-02-26T07:16:49;7.53;;;2.37;;
45011;SDS011;63444;48.148;11.542;2023-02-26T07:19:14;3.03;;;1.80;;
45011;SDS011;63444;48.148;11.542;2023-02-26T07:21:40;2.03;;;1.83;;
45011;SDS011;63444;48.148;11.542;2023-02-26T07:24:05;5.87;;;1.93;;
45011;SDS011;63444;48.148;11.542;2023-02-26T07:26:31;5.40;;;2.50;;
45011;SDS011;63444;48.148;11.542;2023-02-26T07:28:57;4.43;;;2.13;;
45011;SDS011;63444;48.148;11.542;2023-02-26T07:31:23;3.37;;;2.30;;
45011;SDS011;63444;48.148;11.542;2023-02-26T07:33:48;4.40;;;2.20;;
45011;SDS011;63444;48.148;11.542;2023-02-26T07:36:14;5.10;;;2.30;;
45011;SDS011;63444;48.148;11.542;2023-02-26T07:38:39;4.60;;;2.10;;
45011;SDS011;63444;48.148;11.542;2023-02-26T07:41:05;2.57;;;1.93;;
45011;SDS011;63444;48.148;11.542;2023-02-26T07:43:31;4.00;;;2.23;;
45011;SDS011;63444;48.148;11.542;2023-02-26T07:45:56;3.30;;;1.97;;
45011;SDS011;63444;48.148;11.542;2023-02-26T07:48:22;3.13;;;1.83;;
45011;SDS011;63444;48.148;11.542;2023-02-26T07:50:52;3.30;;;2.00;;
45011;SDS011;63444;48.148;11.542;2023-02-26T07:53:18;2.97;;;1.97;;
45011;SDS011;63444;48.148;11.542;2023-02-26T07:55:44;2.57;;;2.37;;
45011;SDS011;63444;48.148;11.542;2023-02-26T07:58:11;2.97;;;2.10;;
45011;SDS011;63444;48.148;11.542;2023-02-26T08:00:36;3.90;;;2.20;;
45011;SDS011;63444;48.148;11.542;2023-02-26T08:03:02;2.27;;;2.07;;
45011;SDS011;63444;48.148;11.542;2023-02-26T08:05:27;3.57;;;2.20;;
45011;SDS011;63444;48.148;11.542;2023-02-26T08:07:53;3.10;;;2.20;;
45011;SDS011;63444;48.148;11.542;2023-02-26T08:10:19;4.20;;;2.00;;
45011;SDS011;63444;48.148;11.542;2023-02-26T08:12:44;2.10;;;1.90;;
45011;SDS011;63444;48.148;11.542;2023-02-26T08:15:10;3.50;;;2.20;;
45011;SDS011;63444;48.148;11.542;2023-02-26T08:17:38;4.83;;;2.57;;
45011;SDS011;63444;48.148;11.542;2023-02-26T08:20:04;3.37;;;2.20;;
45011;SDS011;63444;48.148;11.542;2023-02-26T08:22:31;3.13;;;2.43;;
45011;SDS011;63444;48.148;11.542;2023-02-26T08:24:56;4.53;;;2.30;;
45011;SDS011;63444;48.148;11.542;2023-02-26T08:27:22;4.57;;;2.47;;
45011;SDS011;63444;48.148;11.542;2023-02-26T08:29:47;4.43;;;2.20;;
45011;SDS011;63444;48.148;11.542;2023-02-26T08:32:14;3.50;;;2.50;;
45011;SDS011;63444;48.148;11.542;2023-02-26T08:34:42;5.77;;;2.33;;
45011;SDS011;63444;48.148;11.542;2023-02-26T08:37:07;3.83;;;2.37;;
45011;SDS011;63444;48.148;11.542;2023-02-26T08:39:35;2.77;;;2.23;;
45011;SDS011;63444;48.148;11.542;2023-02-26T08:42:03;6.50;;;2.40;;
45011;SDS011;63444;48.148;11.542;2023-02-26T08:44:30;2.37;;;2.10;;
45011;SDS011;63444;48.148;11.542;2023-02-26T08:46:55;3.10;;;2.30;;
45011;SDS011;63444;48.148;11.542;2023-02-26T08:49:22;2.83;;;2.30;;
45011;SDS011;63444;48.148;11.542;2023-02-26T08:51:49;2.33;;;2.13;;
45011;SDS011;63444;48.148;11.542;2023-02-26T08:54:15;2.77;;;2.23;;
45011;SDS011;63444;48.148;11.542;2023-02-26T08:56:41;2.77;;;2.40;;
45011;SDS011;63444;48.148;11.542;2023-02-26T08:59:07;4.03;;;2.40;;
45011;SDS011;63444;48.148;11.542;2023-02-26T09:01:34;3.20;;;2.13;;
45011;SDS011;63444;48.148;11.542;2023-02-26T09:03:59;4.70;;;3.30;;
45011;SDS011;63444;48.148;11.542;2023-02-26T09:06:25;4.97;;;2.60;;
45011;SDS011;63444;48.148;11.542;2023-02-26T09:08:50;2.93;;;2.30;;
45011;SDS011;63444;48.148;11.542;2023-02-26T09:11:16;2.70;;;2.50;;
45011;SDS011;63444;48.148;11.542;2023-02-26T09:13:42;2.40;;;2.20;;
45011;SDS011;63444;48.148;11.542;2023-02-26T09:16:09;3.47;;;2.63;;
45011;SDS011;63444;48.148;11.542;2023-02-26T09:18:35;3.20;;;2.40;;
45011;SDS011;63444;48.148;11.542;2023-02-26T09:21:01;3.40;;;2.33;;
45011;SDS011;63444;48.148;11.542;2023-02-26T09:23:27;2.40;;;2.20;;
45011;SDS011;63444;48.148;11.542;2023-02-26T09:25:53;2.83;;;2.53;;
45011;SDS011;63444;48.148;11.542;2023-02-26T09:28:21;3.57;;;2.70;;
45011;SDS011;63444;48.148;11.542;2023-02-26T09:30:52;3.37;;;2.80;;
45011;SDS011;63444;48.148;11.542;2023-02-26T09:33:19;3.03;;;2.33;;
45011;SDS011;63444;48.148;11.542;2023-02-26T09:35:48;4.03;;;2.70;;
45011;SDS011;63444;48.148;11.542;2023-02-26T09:38:17;2.80;;;2.60;;
45011;SDS011;63444;48.148;11.542;2023-02-26T09:43:24;3.07;;;2.77;;
45011;SDS011;63444;48.148;11.542;2023-02-26T09:46:30;3.03;;;2.60;;
45011;SDS011;63444;48.148;11.542;2023-02-26T09:49:31;2.97;;;2.77;;
45011;SDS011;63444;48.148;11.542;2023-02-26T09:54:52;3.07;;;2.80;;
45011;SDS011;63444;48.148;11.542;2023-02-26T09:57:33;3.03;;;2.83;;
45011;SDS011;63444;48.148;11.542;2023-02-26T10:00:50;3.93;;;3.23;;
45011;SDS011;63444;48.148;11.542;2023-02-26T10:03:11;3.17;;;2.80;;
45011;SDS011;63444;48.148;11.542;2023-02-26T10:05:45;3.30;;;3.00;;
45011;SDS011;63444;48.148;11.542;2023-02-26T10:08:39;2.90;;;2.70;;
45011;SDS011;63444;48.148;11.542;2023-02-26T10:11:20;3.30;;;3.00;;
45011;SDS011;63444;48.148;11.542;2023-02-26T10:13:54;5.43;;;3.10;;
45011;SDS011;63444;48.148;11.542;2023-02-26T10:16:29;3.30;;;3.00;;
45011;SDS011;63444;48.148;11.542;2023-02-26T10:19:03;2.90;;;2.70;;
45011;SDS011;63444;48.148;11.542;2023-02-26T10:21:50;3.87;;;2.90;;
45011;SDS011;63444;48.148;11.542;2023-02-26T10:27:13;4.50;;;3.00;;
45011;SDS011;63444;48.148;11.542;2023-02-26T10:29:44;3.10;;;2.90;;
45011;SDS011;63444;48.148;11.542;2023-02-26T10:32:39;2.80;;;2.60;;
45011;SDS011;63444;48.148;11.542;2023-02-26T10:35:18;3.60;;;2.90;;
45011;SDS011;63444;48.148;11.542;2023-02-26T10:37:55;4.00;;;3.07;;
45011;SDS011;63444;48.148;11.542;2023-02-26T10:40:33;2.50;;;2.30;;
45011;SDS011;63444;48.148;11.542;2023-02-26T10:46:06;2.37;;;2.27;;
45011;SDS011;63444;48.148;11.542;2023-02-26T10:51:25;3.50;;;3.20;;
45011;SDS011;63444;48.148;11.542;2023-02-26T10:54:05;3.67;;;2.70;;
45011;SDS011;63444;48.148;11.542;2023-02-26T10:56:39;2.60;;;2.40;;
45011;SDS011;63444;48.148;11.542;2023-02-26T10:59:05;3.53;;;2.50;;
45011;SDS011;63444;48.148;11.542;2023-02-26T11:01:30;2.70;;;2.40;;
45011;SDS011;63444;48.148;11.542;2023-02-26T11:03:59;2.80;;;2.60;;
45011;SDS011;63444;48.148;11.542;2023-02-26T11:06:29;2.63;;;2.43;;
45011;SDS011;63444;48.148;11.542;2023-02-26T11:08:58;2.80;;;2.60;;
45011;SDS011;63444;48.148;11.542;2023-02-26T11:14:11;2.93;;;2.73;;
45011;SDS011;63444;48.148;11.542;2023-02-26T11:16:58;3.10;;;2.80;;
45011;SDS011;63444;48.148;11.542;2023-02-26T11:19:30;3.30;;;2.83;;
45011;SDS011;63444;48.148;11.542;2023-02-26T11:21:59;2.73;;;2.53;;
45011;SDS011;63444;48.148;11.542;2023-02-26T11:24:33;3.07;;;2.77;;
45011;SDS011;63444;48.148;11.542;2023-02-26T11:27:02;2.90;;;2.70;;
45011;SDS011;63444;48.148;11.542;2023-02-26T11:29:37;2.70;;;2.50;;
45011;SDS011;63444;48.148;11.542;2023-02-26T11:32:06;2.70;;;2.50;;
45011;SDS011;63444;48.148;11.542;2023-02-26T11:34:38;3.13;;;2.70;;
45011;SDS011;63444;48.148;11.542;2023-02-26T11:37:10;2.60;;;2.40;;
45011;SDS011;63444;48.148;11.542;2023-02-26T11:39:35;3.00;;;2.70;;
45011;SDS011;63444;48.148;11.542;2023-02-26T11:42:03;2.80;;;2.60;;
45011;SDS011;63444;48.148;11.542;2023-02-26T11:47:06;2.90;;;2.60;;
45011;SDS011;63444;48.148;11.542;2023-02-26T11:49:55;2.90;;;2.70;;
45011;SDS011;63444;48.148;11.542;2023-02-26T11:55:04;3.47;;;2.70;;
45011;SDS011;63444;48.148;11.542;2023-02-26T11:57:41;2.30;;;2.20;;
45011;SDS011;63444;48.148;11.542;2023-02-26T12:00:17;2.50;;;2.30;;
45011;SDS011;63444;48.148;11.542;2023-02-26T12:02:45;2.80;;;2.57;;
45011;SDS011;63444;48.148;11.542;2023-02-26T12:05:11;2.73;;;2.50;;
45011;SDS011;63444;48.148;11.542;2023-02-26T12:07:40;3.00;;;2.17;;
45011;SDS011;63444;48.148;11.542;2023-02-26T12:10:21;2.63;;;2.43;;
45011;SDS011;63444;48.148;11.542;2023-02-26T12:34:35;1.90;;;1.80;;
45011;SDS011;63444;48.148;11.542;2023-02-26T12:45:46;2.70;;;1.90;;
45011;SDS011;63444;48.148;11.542;2023-02-26T12:49:41;2.20;;;1.70;;
45011;SDS011;63444;48.148;11.542;2023-02-26T12:52:11;3.20;;;2.10;;
45011;SDS011;63444;48.148;11.542;2023-02-26T13:17:33;2.13;;;1.87;;
45011;SDS011;63444;48.148;11.542;2023-02-26T13:20:29;2.40;;;2.20;;
45011;SDS011;63444;48.148;11.542;2023-02-26T13:23:00;3.40;;;2.17;;
45011;SDS011;63444;48.148;11.542;2023-02-26T13:28:24;2.30;;;2.20;;
45011;SDS011;63444;48.148;11.542;2023-02-26T13:31:03;2.20;;;2.03;;
45011;SDS011;63444;48.148;11.542;2023-02-26T13:33:35;3.00;;;2.70;;
45011;SDS011;63444;48.148;11.542;2023-02-26T13:36:01;2.80;;;2.30;;
45011;SDS011;63444;48.148;11.542;2023-02-26T13:41:14;2.30;;;2.10;;
45011;SDS011;63444;48.148;11.542;2023-02-26T13:46:43;2.50;;;2.13;;
45011;SDS011;63444;48.148;11.542;2023-02-26T13:49:42;2.40;;;2.20;;
45011;SDS011;63444;48.148;11.542;2023-02-26T13:52:34;3.17;;;2.70;;
45011;SDS011;63444;48.148;11.542;2023-02-26T13:55:01;2.70;;;2.50;;
45011;SDS011;63444;48.148;11.542;2023-02-26T14:02:54;3.03;;;2.70;;
45011;SDS011;63444;48.148;11.542;2023-02-26T14:10:49;3.80;;;3.03;;
45011;SDS011;63444;48.148;11.542;2023-02-26T14:13:32;2.53;;;2.33;;
45011;SDS011;63444;48.148;11.542;2023-02-26T14:24:03;2.70;;;2.50;;
45011;SDS011;63444;48.148;11.542;2023-02-26T14:27:02;2.30;;;2.10;;
45011;SDS011;63444;48.148;11.542;2023-02-26T14:35:14;2.57;;;2.37;;
45011;SDS011;63444;48.148;11.542;2023-02-26T14:37:49;2.80;;;2.60;;
45011;SDS011;63444;48.148;11.542;2023-02-26T14:40:22;2.47;;;2.27;;
45011;SDS011;63444;48.148;11.542;2023-02-26T14:42:56;2.63;;;2.43;;
45011;SDS011;63444;48.148;11.542;2023-02-26T14:47:53;2.10;;;1.90;;
45011;SDS011;63444;48.148;11.542;2023-02-26T14:50:21;2.70;;;2.30;;
45011;SDS011;63444;48.148;11.542;2023-02-26T14:52:50;2.30;;;2.20;;
45011;SDS011;63444;48.148;11.542;2023-02-26T14:55:31;2.70;;;2.50;;
45011;SDS011;63444;48.148;11.542;2023-02-26T15:06:07;2.63;;;1.97;;
45011;SDS011;63444;48.148;11.542;2023-02-26T15:19:17;2.30;;;2.10;;
45011;SDS011;63444;48.148;11.542;2023-02-26T15:22:10;2.40;;;2.20;;
45011;SDS011;63444;48.148;11.542;2023-02-26T15:24:38;2.47;;;2.27;;
45011;SDS011;63444;48.148;11.542;2023-02-26T15:27:09;2.37;;;2.17;;
45011;SDS011;63444;48.148;11.542;2023-02-26T15:29:40;2.10;;;2.00;;
45011;SDS011;63444;48.148;11.542;2023-02-26T15:32:13;2.40;;;2.27;;
45011;SDS011;63444;48.148;11.542;2023-02-26T15:34:57;3.30;;;2.10;;
45011;SDS011;63444;48.148;11.542;2023-02-26T15:37:36;2.70;;;2.50;;
45011;SDS011;63444;48.148;11.542;2023-02-26T15:40:03;2.57;;;2.37;;
45011;SDS011;63444;48.148;11.542;2023-02-26T15:42:30;2.47;;;2.27;;
45011;SDS011;63444;48.148;11.542;2023-02-26T15:45:03;2.53;;;2.33;;
45011;SDS011;63444;48.148;11.542;2023-02-26T15:47:37;2.40;;;2.20;;
45011;SDS011;63444;48.148;11.542;2023-02-26T15:50:03;2.53;;;2.33;;
45011;SDS011;63444;48.148;11.542;2023-02-26T15:52:29;2.40;;;2.20;;
45011;SDS011;63444;48.148;11.542;2023-02-26T15:55:01;3.07;;;2.63;;
45011;SDS011;63444;48.148;11.542;2023-02-26T15:57:29;2.80;;;2.50;;
45011;SDS011;63444;48.148;11.542;2023-02-26T16:00:11;2.63;;;2.43;;
45011;SDS011;63444;48.148;11.542;2023-02-26T16:02:48;2.30;;;2.10;;
45011;SDS011;63444;48.148;11.542;2023-02-26T16:05:15;2.67;;;2.40;;
45011;SDS011;63444;48.148;11.542;2023-02-26T16:07:42;2.50;;;2.30;;
45011;SDS011;63444;48.148;11.542;2023-02-26T16:10:14;2.73;;;2.53;;
45011;SDS011;63444;48.148;11.542;2023-02-26T16:13:02;2.60;;;2.10;;
45011;SDS011;63444;48.148;11.542;2023-02-26T16:15:31;2.53;;;2.33;;
45011;SDS011;63444;48.148;11.542;2023-02-26T16:18:00;2.27;;;2.17;;
45011;SDS011;63444;48.148;11.542;2023-02-26T16:20:31;2.80;;;2.60;;
45011;SDS011;63444;48.148;11.542;2023-02-26T16:23:05;2.70;;;2.50;;
45011;SDS011;63444;48.148;11.542;2023-02-26T16:25:40;2.97;;;2.30;;
45011;SDS011;63444;48.148;11.542;2023-02-26T16:28:27;3.97;;;2.57;;
45011;SDS011;63444;48.148;11.542;2023-02-26T16:30:59;3.83;;;2.83;;
45011;SDS011;63444;48.148;11.542;2023-02-26T16:33:31;2.63;;;2.43;;
45011;SDS011;63444;48.148;11.542;2023-02-26T16:36:10;2.93;;;2.70;;
45011;SDS011;63444;48.148;11.542;2023-02-26T16:38:43;2.47;;;1.97;;
45011;SDS011;63444;48.148;11.542;2023-02-26T16:41:11;2.03;;;1.83;;
45011;SDS011;63444;48.148;11.542;2023-02-26T16:46:13;2.10;;;1.90;;
45011;SDS011;63444;48.148;11.542;2023-02-26T16:48:45;2.27;;;1.80;;
45011;SDS011;63444;48.148;11.542;2023-02-26T16:51:18;2.23;;;1.90;;
45011;SDS011;63444;48.148;11.542;2023-02-26T16:53:47;1.87;;;1.67;;
45011;SDS011;63444;48.148;11.542;2023-02-26T16:56:17;3.73;;;2.20;;
45011;SDS011;63444;48.148;11.542;2023-02-26T17:01:38;2.13;;;2.03;;
45011;SDS011;63444;48.148;11.542;2023-02-26T17:04:10;5.07;;;2.90;;
45011;SDS011;63444;48.148;11.542;2023-02-26T17:06:41;3.30;;;2.90;;
45011;SDS011;63444;48.148;11.542;2023-02-26T17:09:06;2.87;;;2.67;;
45011;SDS011;63444;48.148;11.542;2023-02-26T17:11:47;3.70;;;3.07;;
45011;SDS011;63444;48.148;11.542;2023-02-26T17:14:14;2.93;;;2.67;;
45011;SDS011;63444;48.148;11.542;2023-02-26T17:16:51;2.60;;;2.37;;
45011;SDS011;63444;48.148;11.542;2023-02-26T17:19:17;2.83;;;2.63;;
45011;SDS011;63444;48.148;11.542;2023-02-26T17:21:45;2.43;;;2.20;;
45011;SDS011;63444;48.148;11.542;2023-02-26T17:24:31;3.30;;;2.47;;
45011;SDS011;63444;48.148;11.542;2023-02-26T17:26:59;2.90;;;2.60;;
45011;SDS011;63444;48.148;11.542;2023-02-26T17:29:34;2.40;;;2.20;;
45011;SDS011;63444;48.148;11.542;2023-02-26T17:32:04;4.63;;;2.50;;
45011;SDS011;63444;48.148;11.542;2023-02-26T17:34:34;2.30;;;2.10;;
45011;SDS011;63444;48.148;11.542;2023-02-26T17:36:59;2.77;;;2.00;;
45011;SDS011;63444;48.148;11.542;2023-02-26T17:39:30;2.07;;;1.97;;
45011;SDS011;63444;48.148;11.542;2023-02-26T17:41:56;2.50;;;2.30;;
45011;SDS011;63444;48.148;11.542;2023-02-26T17:44:22;2.93;;;2.43;;
45011;SDS011;63444;48.148;11.542;2023-02-26T17:46:47;2.77;;;2.30;;
45011;SDS011;63444;48.148;11.542;2023-02-26T17:49:13;2.83;;;2.20;;
45011;SDS011;63444;48.148;11.542;2023-02-26T17:51:39;2.37;;;2.10;;